sensor_id;sensor_type;location;lat;lon;timestamp;P1;durP1;ratioP1;P2;durP2;ratioP2
17842;SDS011;69286;48.222;16.332;2023-10-09T00:02:07;6.70;;;3.30;;
17842;SDS011;69286;48.222;16.332;2023-10-09T00:04:35;5.23;;;3.03;;
17842;SDS011;69286;48.222;16.332;2023-10-09T00:07:05;4.53;;;2.70;;
17842;SDS011;69286;48.222;16.332;2023-10-09T00:09:34;4.80;;;2.90;;
17842;SDS011;69286;48.222;16.332;2023-10-09T00:12:11;6.13;;;3.20;;
17842;SDS011;69286;48.222;16.332;2023-10-09T00:14:47;4.70;;;3.10;;
17842;SDS011;69286;48.222;16.332;2023-10-09T00:17:17;4.00;;;3.07;;
17842;SDS011;69286;48.222;16.332;2023-10-09T00:19:44;3.93;;;3.10;;
17842;SDS011;69286;48.222;16.332;2023-10-09T00:22:15;4.63;;;3.13;;
17842;SDS011;69286;48.222;16.332;2023-10-09T00:24:55;4.80;;;3.17;;
17842;SDS011;69286;48.222;16.332;2023-10-09T00:27:37;4.87;;;2.73;;
17842;SDS011;69286;48.222;16.332;2023-10-09T00:30:07;5.97;;;3.17;;
17842;SDS011;69286;48.222;16.332;2023-10-09T00:32:41;5.83;;;3.17;;
17842;SDS011;69286;48.222;16.332;2023-10-09T00:35:11;5.83;;;3.10;;
17842;SDS011;69286;48.222;16.332;2023-10-09T00:37:54;6.30;;;3.50;;
17842;SDS011;69286;48.222;16.332;2023-10-09T00:40:30;4.43;;;2.93;;
17842;SDS011;69286;48.222;16.332;2023-10-09T00:43:00;5.50;;;3.27;;
17842;SDS011;69286;48.222;16.332;2023-10-09T00:45:31;4.47;;;3.30;;
17842;SDS011;69286;48.222;16.332;2023-10-09T00:48:05;5.63;;;3.17;;
17842;SDS011;69286;48.222;16.332;2023-10-09T00:50:34;4.27;;;2.90;;
17842;SDS011;69286;48.222;16.332;2023-10-09T00:53:03;4.57;;;3.20;;
17842;SDS011;69286;48.222;16.332;2023-10-09T00:55:37;7.00;;;3.57;;
17842;SDS011;69286;48.222;16.332;2023-10-09T00:58:11;7.93;;;3.00;;
17842;SDS011;69286;48.222;16.332;2023-10-09T01:00:40;5.83;;;3.33;;
17842;SDS011;69286;48.222;16.332;2023-10-09T01:03:13;4.70;;;3.10;;
17842;SDS011;69286;48.222;16.332;2023-10-09T01:05:46;6.17;;;3.23;;
17842;SDS011;69286;48.222;16.332;2023-10-09T01:08:23;6.57;;;3.50;;
17842;SDS011;69286;48.222;16.332;2023-10-09T01:10:54;5.27;;;3.37;;
17842;SDS011;69286;48.222;16.332;2023-10-09T01:13:24;6.37;;;3.80;;
17842;SDS011;69286;48.222;16.332;2023-10-09T01:16:04;6.40;;;3.23;;
17842;SDS011;69286;48.222;16.332;2023-10-09T01:18:33;6.77;;;3.20;;
17842;SDS011;69286;48.222;16.332;2023-10-09T01:21:04;4.20;;;3.10;;
17842;SDS011;69286;48.222;16.332;2023-10-09T01:23:32;4.40;;;3.20;;
17842;SDS011;69286;48.222;16.332;2023-10-09T01:26:07;6.87;;;3.70;;
17842;SDS011;69286;48.222;16.332;2023-10-09T01:28:34;4.70;;;3.23;;
17842;SDS011;69286;48.222;16.332;2023-10-09T01:31:01;5.30;;;3.10;;
17842;SDS011;69286;48.222;16.332;2023-10-09T01:33:28;5.17;;;3.57;;
17842;SDS011;69286;48.222;16.332;2023-10-09T01:36:00;5.10;;;3.37;;
17842;SDS011;69286;48.222;16.332;2023-10-09T01:38:28;4.43;;;3.00;;
17842;SDS011;69286;48.222;16.332;2023-10-09T01:41:07;4.97;;;3.10;;
17842;SDS011;69286;48.222;16.332;2023-10-09T01:43:40;4.90;;;2.90;;
17842;SDS011;69286;48.222;16.332;2023-10-09T01:46:09;3.90;;;2.87;;
17842;SDS011;69286;48.222;16.332;2023-10-09T01:48:37;4.33;;;3.27;;
17842;SDS011;69286;48.222;16.332;2023-10-09T01:51:05;5.27;;;3.50;;
17842;SDS011;69286;48.222;16.332;2023-10-09T01:53:39;5.67;;;3.70;;
17842;SDS011;69286;48.222;16.332;2023-10-09T01:56:11;8.33;;;3.37;;
17842;SDS011;69286;48.222;16.332;2023-10-09T01:58:40;4.70;;;3.60;;
17842;SDS011;69286;48.222;16.332;2023-10-09T02:01:11;4.07;;;2.80;;
17842;SDS011;69286;48.222;16.332;2023-10-09T02:03:39;4.83;;;3.23;;
17842;SDS011;69286;48.222;16.332;2023-10-09T02:06:07;4.87;;;3.17;;
17842;SDS011;69286;48.222;16.332;2023-10-09T02:08:50;7.87;;;3.73;;
17842;SDS011;69286;48.222;16.332;2023-10-09T02:11:19;5.87;;;3.50;;
17842;SDS011;69286;48.222;16.332;2023-10-09T02:14:01;4.20;;;3.33;;
17842;SDS011;69286;48.222;16.332;2023-10-09T02:16:40;4.07;;;3.07;;
17842;SDS011;69286;48.222;16.332;2023-10-09T02:19:08;6.70;;;2.97;;
17842;SDS011;69286;48.222;16.332;2023-10-09T02:21:54;3.97;;;3.20;;
17842;SDS011;69286;48.222;16.332;2023-10-09T02:24:22;7.90;;;3.50;;
17842;SDS011;69286;48.222;16.332;2023-10-09T02:27:09;5.00;;;3.70;;
17842;SDS011;69286;48.222;16.332;2023-10-09T02:29:37;4.77;;;2.70;;
17842;SDS011;69286;48.222;16.332;2023-10-09T02:32:03;4.13;;;3.07;;
17842;SDS011;69286;48.222;16.332;2023-10-09T02:34:41;4.30;;;3.00;;
17842;SDS011;69286;48.222;16.332;2023-10-09T02:37:11;4.10;;;2.90;;
17842;SDS011;69286;48.222;16.332;2023-10-09T02:39:39;5.40;;;3.30;;
17842;SDS011;69286;48.222;16.332;2023-10-09T02:42:10;5.07;;;3.20;;
17842;SDS011;69286;48.222;16.332;2023-10-09T02:44:48;4.77;;;2.97;;
17842;SDS011;69286;48.222;16.332;2023-10-09T02:47:16;6.80;;;3.03;;
17842;SDS011;69286;48.222;16.332;2023-10-09T02:49:46;5.30;;;2.97;;
17842;SDS011;69286;48.222;16.332;2023-10-09T02:52:15;4.43;;;3.27;;
17842;SDS011;69286;48.222;16.332;2023-10-09T02:54:49;6.73;;;3.30;;
17842;SDS011;69286;48.222;16.332;2023-10-09T02:57:26;6.93;;;3.27;;
17842;SDS011;69286;48.222;16.332;2023-10-09T03:00:01;4.67;;;3.00;;
17842;SDS011;69286;48.222;16.332;2023-10-09T03:02:33;7.50;;;3.23;;
17842;SDS011;69286;48.222;16.332;2023-10-09T03:05:05;4.37;;;2.93;;
17842;SDS011;69286;48.222;16.332;2023-10-09T03:07:37;3.73;;;2.70;;
17842;SDS011;69286;48.222;16.332;2023-10-09T03:10:05;5.57;;;3.03;;
17842;SDS011;69286;48.222;16.332;2023-10-09T03:12:35;6.37;;;3.43;;
17842;SDS011;69286;48.222;16.332;2023-10-09T03:15:05;5.57;;;2.93;;
17842;SDS011;69286;48.222;16.332;2023-10-09T03:17:33;5.43;;;3.40;;
17842;SDS011;69286;48.222;16.332;2023-10-09T03:20:02;5.60;;;3.40;;
17842;SDS011;69286;48.222;16.332;2023-10-09T03:22:37;4.97;;;3.33;;
17842;SDS011;69286;48.222;16.332;2023-10-09T03:25:04;5.07;;;3.40;;
17842;SDS011;69286;48.222;16.332;2023-10-09T03:27:38;5.50;;;3.60;;
17842;SDS011;69286;48.222;16.332;2023-10-09T03:30:07;6.20;;;3.20;;
17842;SDS011;69286;48.222;16.332;2023-10-09T03:32:41;6.90;;;3.43;;
17842;SDS011;69286;48.222;16.332;2023-10-09T03:35:09;6.47;;;3.20;;
17842;SDS011;69286;48.222;16.332;2023-10-09T03:37:39;7.33;;;3.60;;
17842;SDS011;69286;48.222;16.332;2023-10-09T03:40:07;6.27;;;3.20;;
17842;SDS011;69286;48.222;16.332;2023-10-09T03:42:43;4.77;;;3.40;;
17842;SDS011;69286;48.222;16.332;2023-10-09T03:45:11;5.20;;;3.17;;
17842;SDS011;69286;48.222;16.332;2023-10-09T03:47:49;5.83;;;3.73;;
17842;SDS011;69286;48.222;16.332;2023-10-09T03:50:26;5.33;;;3.60;;
17842;SDS011;69286;48.222;16.332;2023-10-09T03:53:00;7.70;;;4.30;;
17842;SDS011;69286;48.222;16.332;2023-10-09T03:55:31;4.03;;;3.27;;
17842;SDS011;69286;48.222;16.332;2023-10-09T03:58:00;4.80;;;3.73;;
17842;SDS011;69286;48.222;16.332;2023-10-09T04:00:28;6.43;;;3.73;;
17842;SDS011;69286;48.222;16.332;2023-10-09T04:02:57;6.10;;;3.60;;
17842;SDS011;69286;48.222;16.332;2023-10-09T04:05:25;5.33;;;3.80;;
17842;SDS011;69286;48.222;16.332;2023-10-09T04:07:54;6.37;;;4.00;;
17842;SDS011;69286;48.222;16.332;2023-10-09T04:10:23;6.93;;;4.10;;
17842;SDS011;69286;48.222;16.332;2023-10-09T04:13:13;7.67;;;3.90;;
17842;SDS011;69286;48.222;16.332;2023-10-09T04:15:43;5.67;;;3.60;;
17842;SDS011;69286;48.222;16.332;2023-10-09T04:18:11;6.97;;;4.20;;
17842;SDS011;69286;48.222;16.332;2023-10-09T04:20:41;7.13;;;3.93;;
17842;SDS011;69286;48.222;16.332;2023-10-09T04:23:36;7.63;;;4.00;;
17842;SDS011;69286;48.222;16.332;2023-10-09T04:26:23;6.43;;;4.27;;
17842;SDS011;69286;48.222;16.332;2023-10-09T04:28:51;8.73;;;4.00;;
17842;SDS011;69286;48.222;16.332;2023-10-09T04:31:19;6.30;;;3.43;;
17842;SDS011;69286;48.222;16.332;2023-10-09T04:33:53;5.87;;;3.83;;
17842;SDS011;69286;48.222;16.332;2023-10-09T04:36:44;6.70;;;3.77;;
17842;SDS011;69286;48.222;16.332;2023-10-09T04:39:14;5.17;;;3.90;;
17842;SDS011;69286;48.222;16.332;2023-10-09T04:42:00;7.33;;;4.17;;
17842;SDS011;69286;48.222;16.332;2023-10-09T04:44:53;8.40;;;4.50;;
17842;SDS011;69286;48.222;16.332;2023-10-09T04:47:44;7.43;;;3.83;;
17842;SDS011;69286;48.222;16.332;2023-10-09T04:50:31;7.03;;;4.27;;
17842;SDS011;69286;48.222;16.332;2023-10-09T04:53:15;6.53;;;4.30;;
17842;SDS011;69286;48.222;16.332;2023-10-09T04:55:49;7.03;;;4.23;;
17842;SDS011;69286;48.222;16.332;2023-10-09T04:58:29;7.77;;;4.17;;
17842;SDS011;69286;48.222;16.332;2023-10-09T05:00:59;8.10;;;4.33;;
17842;SDS011;69286;48.222;16.332;2023-10-09T05:03:30;6.03;;;4.30;;
17842;SDS011;69286;48.222;16.332;2023-10-09T05:08:27;7.07;;;4.27;;
17842;SDS011;69286;48.222;16.332;2023-10-09T05:10:58;9.87;;;4.13;;
17842;SDS011;69286;48.222;16.332;2023-10-09T05:13:40;9.87;;;4.37;;
17842;SDS011;69286;48.222;16.332;2023-10-09T05:20:59;7.23;;;4.13;;
17842;SDS011;69286;48.222;16.332;2023-10-09T05:23:46;6.63;;;4.20;;
17842;SDS011;69286;48.222;16.332;2023-10-09T05:26:14;6.53;;;4.00;;
17842;SDS011;69286;48.222;16.332;2023-10-09T05:29:02;5.40;;;3.87;;
17842;SDS011;69286;48.222;16.332;2023-10-09T05:31:44;4.10;;;3.50;;
17842;SDS011;69286;48.222;16.332;2023-10-09T05:34:21;8.30;;;4.33;;
17842;SDS011;69286;48.222;16.332;2023-10-09T05:36:49;9.57;;;3.90;;
17842;SDS011;69286;48.222;16.332;2023-10-09T05:39:16;7.30;;;3.93;;
17842;SDS011;69286;48.222;16.332;2023-10-09T05:41:47;8.83;;;4.23;;
17842;SDS011;69286;48.222;16.332;2023-10-09T05:44:24;6.23;;;4.53;;
17842;SDS011;69286;48.222;16.332;2023-10-09T05:47:09;12.53;;;4.00;;
17842;SDS011;69286;48.222;16.332;2023-10-09T05:54:43;8.90;;;3.90;;
17842;SDS011;69286;48.222;16.332;2023-10-09T05:57:28;6.83;;;3.80;;
